Wetterstation Oberdrees
Wetterdaten: aktuell Montag, 02.08.2021 02:30
Datum Zeit Temp. A. Feuchte A. Luftdruck Regen Wind Richtung Richtung Taupunkt Windchill Windben
02.08.2021 02:30 14,6 C 88 % 1013,7 hPa 0,0 l/m 2,6 km/h (1 Bft) W 266 12,6 C 14,6 C 4,8 km/h (1 Bft)
02.08.2021 02:25 14,6 C 88 % 1013,7 hPa 0,0 l/m 2,5 km/h (1 Bft) W 265 12,6 C 14,6 C 6,4 km/h (2 Bft)
02.08.2021 02:20 14,6 C 88 % 1013,6 hPa 0,0 l/m 2,5 km/h (1 Bft) W 268 12,6 C 14,6 C 6,4 km/h (2 Bft)
02.08.2021 02:15 14,6 C 88 % 1013,7 hPa 0,0 l/m 1,1 km/h (1 Bft) W-SW 255 12,6 C 14,6 C 4,8 km/h (1 Bft)
02.08.2021 02:10 14,6 C 88 % 1013,6 hPa 0,0 l/m 0,4 km/h (0 Bft) W 265 12,6 C 14,6 C 3,2 km/h (1 Bft)
02.08.2021 02:05 14,6 C 88 % 1013,6 hPa 0,0 l/m 2,4 km/h (1 Bft) W 265 12,6 C 14,6 C 4,8 km/h (1 Bft)
02.08.2021 02:00 14,6 C 87 % 1013,7 hPa 0,0 l/m 1,7 km/h (1 Bft) W 265 12,5 C 14,6 C 6,4 km/h (2 Bft)
02.08.2021 01:55 14,7 C 87 % 1013,7 hPa 0,0 l/m 1,7 km/h (1 Bft) W 265 12,6 C 14,7 C 4,8 km/h (1 Bft)
02.08.2021 01:50 14,8 C 87 % 1013,7 hPa 0,0 l/m 0,0 km/h (0 Bft) W-SW 257 12,7 C 14,8 C 0,0 km/h (0 Bft)
02.08.2021 01:45 14,8 C 87 % 1013,7 hPa 0,0 l/m 0,0 km/h (0 Bft) W-SW 255 12,7 C 14,8 C 0,0 km/h (0 Bft)
02.08.2021 01:40 14,8 C 87 % 1013,7 hPa 0,0 l/m 2,6 km/h (1 Bft) W 259 12,7 C 14,8 C 4,8 km/h (1 Bft)
02.08.2021 01:35 14,9 C 87 % 1013,8 hPa 0,0 l/m 2,6 km/h (1 Bft) W 266 12,8 C 14,9 C 6,4 km/h (2 Bft)
02.08.2021 01:30 14,9 C 87 % 1013,7 hPa 0,0 l/m 3,2 km/h (1 Bft) W-SW 253 12,8 C 14,9 C 6,4 km/h (2 Bft)
02.08.2021 01:25 14,9 C 87 % 1013,7 hPa 0,0 l/m 2,7 km/h (1 Bft) W 264 12,8 C 14,9 C 6,4 km/h (2 Bft)
02.08.2021 01:20 14,9 C 87 % 1013,7 hPa 0,0 l/m 2,8 km/h (1 Bft) W 262 12,8 C 14,9 C 6,4 km/h (2 Bft)
02.08.2021 01:15 14,9 C 87 % 1013,7 hPa 0,0 l/m 4,4 km/h (1 Bft) W 265 12,8 C 14,9 C 6,4 km/h (2 Bft)
02.08.2021 01:10 14,9 C 87 % 1013,7 hPa 0,0 l/m 4,1 km/h (1 Bft) W 265 12,8 C 14,9 C 9,7 km/h (2 Bft)
02.08.2021 01:05 14,9 C 87 % 1013,7 hPa 0,0 l/m 3,5 km/h (1 Bft) W 277 12,8 C 14,9 C 6,4 km/h (2 Bft)
02.08.2021 01:00 14,9 C 87 % 1013,7 hPa 0,0 l/m 3,6 km/h (1 Bft) W-SW 250 12,8 C 14,9 C 6,4 km/h (2 Bft)
02.08.2021 00:55 14,9 C 88 % 1013,8 hPa 0,0 l/m 4,9 km/h (1 Bft) W 261 12,9 C 14,9 C 11,3 km/h (2 Bft)
02.08.2021 00:50 14,8 C 88 % 1013,7 hPa 0,0 l/m 4,9 km/h (1 Bft) W-NW 287 12,8 C 14,8 C 11,3 km/h (2 Bft)
02.08.2021 00:45 14,7 C 88 % 1013,7 hPa 0,0 l/m 4,3 km/h (1 Bft) W 274 12,7 C 14,7 C 9,7 km/h (2 Bft)
02.08.2021 00:40 14,7 C 88 % 1013,6 hPa 0,0 l/m 3,9 km/h (1 Bft) W 271 12,7 C 14,7 C 9,7 km/h (2 Bft)
02.08.2021 00:35 14,7 C 88 % 1013,7 hPa 0,0 l/m 3,8 km/h (1 Bft) W 263 12,7 C 14,7 C 6,4 km/h (2 Bft)
02.08.2021 00:30 14,7 C 88 % 1013,7 hPa 0,0 l/m 3,1 km/h (1 Bft) W 259 12,7 C 14,7 C 9,7 km/h (2 Bft)
02.08.2021 00:25 14,7 C 87 % 1013,6 hPa 0,0 l/m 3,9 km/h (1 Bft) W 262 12,6 C 14,7 C 9,7 km/h (2 Bft)
02.08.2021 00:20 14,7 C 87 % 1013,6 hPa 0,0 l/m 3,8 km/h (1 Bft) W-SW 257 12,6 C 14,7 C 6,4 km/h (2 Bft)
02.08.2021 00:15 14,7 C 87 % 1013,6 hPa 0,0 l/m 4,4 km/h (1 Bft) W 267 12,6 C 14,7 C 9,7 km/h (2 Bft)
02.08.2021 00:10 14,6 C 87 % 1013,6 hPa 0,0 l/m 4,6 km/h (1 Bft) W 263 12,5 C 14,6 C 9,7 km/h (2 Bft)
02.08.2021 00:05 14,6 C 87 % 1013,6 hPa 0,0 l/m 3,7 km/h (1 Bft) W 262 12,5 C 14,6 C 6,4 km/h (2 Bft)
02.08.2021 00:00 14,6 C 87 % 1013,6 hPa 0,0 l/m 3,3 km/h (1 Bft) W 262 12,5 C 14,6 C 9,7 km/h (2 Bft)
01.08.2021 23:55 14,6 C 87 % 1013,6 hPa 0,0 l/m 3,5 km/h (1 Bft) W 269 12,5 C 14,6 C 6,4 km/h (2 Bft)
01.08.2021 23:50 14,7 C 87 % 1013,6 hPa 0,0 l/m 3,2 km/h (1 Bft) W 259 12,6 C 14,7 C 9,7 km/h (2 Bft)
01.08.2021 23:45 14,7 C 87 % 1013,5 hPa 0,0 l/m 2,8 km/h (1 Bft) W-SW 256 12,6 C 14,7 C 4,8 km/h (1 Bft)
01.08.2021 23:40 14,9 C 87 % 1013,5 hPa 0,0 l/m 2,5 km/h (1 Bft) W 259 12,8 C 14,9 C 6,4 km/h (2 Bft)
01.08.2021 23:35 15,0 C 87 % 1013,5 hPa 0,0 l/m 2,6 km/h (1 Bft) W 267 12,9 C 15,0 C 6,4 km/h (2 Bft)
01.08.2021 23:30 15,1 C 87 % 1013,3 hPa 0,0 l/m 3,0 km/h (1 Bft) W 275 13,0 C 15,1 C 6,4 km/h (2 Bft)
01.08.2021 23:25 15,2 C 87 % 1013,3 hPa 0,0 l/m 3,3 km/h (1 Bft) W 267 13,0 C 15,2 C 6,4 km/h (2 Bft)
01.08.2021 23:20 15,3 C 87 % 1013,3 hPa 0,0 l/m 0,9 km/h (0 Bft) W-SW 253 13,1 C 15,3 C 3,2 km/h (1 Bft)
01.08.2021 23:15 15,4 C 87 % 1013,4 hPa 0,0 l/m 1,2 km/h (1 Bft) W-SW 250 13,2 C 15,4 C 4,8 km/h (1 Bft)
01.08.2021 23:10 15,5 C 86 % 1013,3 hPa 0,0 l/m 0,4 km/h (0 Bft) W-NW 290 13,2 C 15,5 C 3,2 km/h (1 Bft)
01.08.2021 23:05 15,5 C 86 % 1013,3 hPa 0,0 l/m 0,0 km/h (0 Bft) W-NW 292 13,2 C 15,5 C 0,0 km/h (0 Bft)
01.08.2021 23:00 15,6 C 86 % 1013,2 hPa 0,0 l/m 0,0 km/h (0 Bft) W-NW 292 13,3 C 15,6 C 0,0 km/h (0 Bft)
01.08.2021 22:55 15,6 C 85 % 1013,3 hPa 0,0 l/m 0,2 km/h (0 Bft) W-NW 292 13,1 C 15,6 C 3,2 km/h (1 Bft)
01.08.2021 22:50 15,7 C 85 % 1013,3 hPa 0,0 l/m 0,0 km/h (0 Bft) W-NW 292 13,2 C 15,7 C 0,0 km/h (0 Bft)
01.08.2021 22:45 15,7 C 83 % 1013,3 hPa 0,0 l/m 0,0 km/h (0 Bft) W-NW 292 12,8 C 15,7 C 0,0 km/h (0 Bft)
01.08.2021 22:40 15,8 C 83 % 1013,2 hPa 0,0 l/m 0,1 km/h (0 Bft) W-NW 292 12,9 C 15,8 C 3,2 km/h (1 Bft)
01.08.2021 22:35 15,8 C 83 % 1013,2 hPa 0,0 l/m 0,0 km/h (0 Bft) W-NW 292 12,9 C 15,8 C 0,0 km/h (0 Bft)
01.08.2021 22:30 15,8 C 82 % 1013,3 hPa 0,0 l/m 0,0 km/h (0 Bft) W-NW 292 12,7 C 15,8 C 0,0 km/h (0 Bft)
01.08.2021 22:25 15,8 C 81 % 1013,2 hPa 0,0 l/m 0,0 km/h (0 Bft) W-NW 292 12,5 C 15,8 C 0,0 km/h (0 Bft)
01.08.2021 22:20 15,9 C 81 % 1013,1 hPa 0,0 l/m 0,0 km/h (0 Bft) W-NW 293 12,6 C 15,9 C 0,0 km/h (0 Bft)
01.08.2021 22:15 16,0 C 80 % 1013,1 hPa 0,0 l/m 1,4 km/h (1 Bft) W-NW 293 12,5 C 16,0 C 4,8 km/h (1 Bft)
01.08.2021 22:10 16,1 C 80 % 1013,1 hPa 0,0 l/m 0,9 km/h (0 Bft) W-NW 292 12,6 C 16,1 C 4,8 km/h (1 Bft)
01.08.2021 22:05 16,3 C 79 % 1013,1 hPa 0,0 l/m 1,5 km/h (1 Bft) W-NW 295 12,6 C 16,3 C 4,8 km/h (1 Bft)
01.08.2021 22:00 16,4 C 79 % 1013,1 hPa 0,0 l/m 3,4 km/h (1 Bft) W-NW 294 12,7 C 16,4 C 11,3 km/h (2 Bft)
01.08.2021 21:55 16,6 C 78 % 1013,2 hPa 0,0 l/m 3,7 km/h (1 Bft) SW 226 12,7 C 16,6 C 9,7 km/h (2 Bft)
01.08.2021 21:50 16,7 C 78 % 1013,1 hPa 0,0 l/m 3,2 km/h (1 Bft) NW 316 12,8 C 16,7 C 8,0 km/h (2 Bft)
01.08.2021 21:45 16,8 C 79 % 1013,1 hPa 0,0 l/m 4,3 km/h (1 Bft) N-NO 22 13,1 C 16,8 C 11,3 km/h (2 Bft)
01.08.2021 21:40 16,8 C 79 % 1013,0 hPa 0,0 l/m 4,5 km/h (1 Bft) W 261 13,1 C 16,8 C 9,7 km/h (2 Bft)
01.08.2021 21:35 16,7 C 80 % 1013,0 hPa 0,0 l/m 5,6 km/h (2 Bft) W 275 13,2 C 16,7 C 12,9 km/h (3 Bft)
01.08.2021 21:30 16,6 C 80 % 1012,8 hPa 0,0 l/m 3,5 km/h (1 Bft) W 268 13,1 C 16,6 C 6,4 km/h (2 Bft)
01.08.2021 21:25 16,6 C 79 % 1012,9 hPa 0,0 l/m 3,6 km/h (1 Bft) W 269 12,9 C 16,6 C 9,7 km/h (2 Bft)
01.08.2021 21:20 16,5 C 79 % 1012,7 hPa 0,0 l/m 1,5 km/h (1 Bft) W 271 12,8 C 16,5 C 6,4 km/h (2 Bft)
01.08.2021 21:15 16,6 C 78 % 1012,7 hPa 0,0 l/m 0,9 km/h (0 Bft) W 272 12,7 C 16,6 C 4,8 km/h (1 Bft)
01.08.2021 21:10 16,6 C 78 % 1012,6 hPa 0,0 l/m 1,7 km/h (1 Bft) W 272 12,7 C 16,6 C 4,8 km/h (1 Bft)
01.08.2021 21:05 16,7 C 78 % 1012,6 hPa 0,0 l/m 2,8 km/h (1 Bft) W 272 12,8 C 16,7 C 6,4 km/h (2 Bft)
01.08.2021 21:00 16,7 C 77 % 1012,6 hPa 0,0 l/m 3,0 km/h (1 Bft) W 277 12,6 C 16,7 C 9,7 km/h (2 Bft)
01.08.2021 20:55 16,8 C 77 % 1012,4 hPa 0,0 l/m 1,2 km/h (1 Bft) W-NW 288 12,7 C 16,8 C 4,8 km/h (1 Bft)
01.08.2021 20:50 16,9 C 77 % 1012,4 hPa 0,0 l/m 2,2 km/h (1 Bft) W-NW 284 12,8 C 16,9 C 8,0 km/h (2 Bft)
01.08.2021 20:45 17,0 C 76 % 1012,3 hPa 0,0 l/m 2,3 km/h (1 Bft) W-NW 285 12,7 C 17,0 C 9,7 km/h (2 Bft)
01.08.2021 20:40 17,1 C 75 % 1012,2 hPa 0,0 l/m 1,2 km/h (1 Bft) W 265 12,6 C 17,1 C 4,8 km/h (1 Bft)
01.08.2021 20:35 17,3 C 75 % 1012,1 hPa 0,0 l/m 2,0 km/h (1 Bft) W 265 12,8 C 17,3 C 4,8 km/h (1 Bft)
01.08.2021 20:30 17,4 C 74 % 1012,1 hPa 0,0 l/m 2,9 km/h (1 Bft) W 267 12,7 C 17,4 C 4,8 km/h (1 Bft)
01.08.2021 20:25 17,5 C 74 % 1012,1 hPa 0,0 l/m 3,3 km/h (1 Bft) NW 315 12,8 C 17,5 C 8,0 km/h (2 Bft)
01.08.2021 20:20 17,6 C 73 % 1012,0 hPa 0,0 l/m 4,3 km/h (1 Bft) NW 308 12,7 C 17,6 C 9,7 km/h (2 Bft)
01.08.2021 20:15 17,8 C 72 % 1012,0 hPa 0,0 l/m 3,7 km/h (1 Bft) N 5 12,7 C 17,8 C 11,3 km/h (2 Bft)
01.08.2021 20:10 17,9 C 71 % 1012,0 hPa 0,0 l/m 4,9 km/h (1 Bft) NW 320 12,6 C 17,9 C 12,9 km/h (3 Bft)
01.08.2021 20:05 18,1 C 70 % 1012,0 hPa 0,0 l/m 5,6 km/h (2 Bft) NW 308 12,5 C 18,1 C 14,5 km/h (3 Bft)
01.08.2021 20:00 18,2 C 69 % 1012,0 hPa 0,0 l/m 5,0 km/h (1 Bft) W-NW 282 12,4 C 18,2 C 11,3 km/h (2 Bft)
01.08.2021 19:55 18,4 C 68 % 1012,0 hPa 0,0 l/m 6,2 km/h (2 Bft) W-NW 292 12,4 C 18,4 C 12,9 km/h (3 Bft)
01.08.2021 19:50 18,6 C 70 % 1012,0 hPa 0,0 l/m 6,0 km/h (2 Bft) W-NW 288 13,0 C 18,6 C 14,5 km/h (3 Bft)
01.08.2021 19:45 18,8 C 70 % 1011,9 hPa 0,0 l/m 6,1 km/h (2 Bft) W-SW 244 13,2 C 18,8 C 14,5 km/h (3 Bft)
01.08.2021 19:40 18,9 C 71 % 1011,8 hPa 0,0 l/m 4,7 km/h (1 Bft) W-NW 300 13,5 C 18,9 C 12,9 km/h (3 Bft)
01.08.2021 19:35 18,9 C 71 % 1011,8 hPa 0,0 l/m 4,2 km/h (1 Bft) NW 324 13,5 C 18,9 C 11,3 km/h (2 Bft)
01.08.2021 19:30 19,0 C 71 % 1011,9 hPa 0,0 l/m 6,5 km/h (2 Bft) NW 314 13,6 C 19,0 C 12,9 km/h (3 Bft)
01.08.2021 19:25 18,9 C 70 % 1011,8 hPa 0,0 l/m 6,0 km/h (2 Bft) SW 229 13,3 C 18,9 C 11,3 km/h (2 Bft)
01.08.2021 19:20 18,9 C 71 % 1011,8 hPa 0,0 l/m 6,3 km/h (2 Bft) W-NW 296 13,5 C 18,9 C 14,5 km/h (3 Bft)
01.08.2021 19:15 18,9 C 69 % 1011,6 hPa 0,0 l/m 6,8 km/h (2 Bft) N-NW 333 13,1 C 18,7 C 14,5 km/h (3 Bft)
01.08.2021 19:10 19,0 C 69 % 1011,8 hPa 0,0 l/m 5,7 km/h (2 Bft) W-NW 294 13,2 C 19,0 C 12,9 km/h (3 Bft)
01.08.2021 19:05 19,0 C 69 % 1011,6 hPa 0,0 l/m 9,3 km/h (2 Bft) NW 306 13,2 C 17,8 C 17,7 km/h (3 Bft)
01.08.2021 19:00 18,9 C 69 % 1011,6 hPa 0,0 l/m 8,2 km/h (2 Bft) N-NW 344 13,1 C 18,1 C 16,1 km/h (3 Bft)
01.08.2021 18:55 18,8 C 68 % 1011,6 hPa 0,0 l/m 8,3 km/h (2 Bft) N-NW 328 12,8 C 18,0 C 17,7 km/h (3 Bft)
01.08.2021 18:50 18,7 C 69 % 1011,5 hPa 0,0 l/m 6,9 km/h (2 Bft) NW 317 12,9 C 18,5 C 14,5 km/h (3 Bft)
01.08.2021 18:45 18,8 C 68 % 1011,5 hPa 0,0 l/m 9,3 km/h (2 Bft) N 350 12,8 C 17,6 C 17,7 km/h (3 Bft)
01.08.2021 18:40 19,0 C 68 % 1011,5 hPa 0,0 l/m 5,7 km/h (2 Bft) NW 310 13,0 C 19,0 C 14,5 km/h (3 Bft)
01.08.2021 18:35 19,1 C 70 % 1011,6 hPa 0,0 l/m 7,9 km/h (2 Bft) W-SW 238 13,5 C 18,4 C 16,1 km/h (3 Bft)
01.08.2021 18:30 19,1 C 70 % 1011,5 hPa 0,0 l/m 8,4 km/h (2 Bft) W-NW 291 13,5 C 18,2 C 17,7 km/h (3 Bft)
01.08.2021 18:25 19,2 C 68 % 1011,4 hPa 0,0 l/m 10,8 km/h (2 Bft) NW 322 13,1 C 17,5 C 20,9 km/h (4 Bft)
01.08.2021 18:20 19,2 C 68 % 1011,3 hPa 0,0 l/m 8,9 km/h (2 Bft) W-SW 244 13,1 C 18,2 C 19,3 km/h (3 Bft)
01.08.2021 18:15 18,8 C 70 % 1011,4 hPa 0,0 l/m 9,5 km/h (2 Bft) SW 235 13,2 C 17,5 C 20,9 km/h (4 Bft)
01.08.2021 18:10 18,6 C 71 % 1011,3 hPa 0,0 l/m 9,6 km/h (2 Bft) W-SW 252 13,2 C 17,2 C 20,9 km/h (4 Bft)
01.08.2021 18:05 18,1 C 73 % 1011,4 hPa 0,0 l/m 10,2 km/h (2 Bft) W-NW 284 13,2 C 16,5 C 17,7 km/h (3 Bft)
01.08.2021 18:00 18,1 C 74 % 1011,5 hPa 0,0 l/m 10,8 km/h (2 Bft) W-SW 251 13,4 C 16,3 C 20,9 km/h (4 Bft)
01.08.2021 17:55 18,2 C 75 % 1011,4 hPa 0,0 l/m 8,7 km/h (2 Bft) W 276 13,7 C 17,2 C 20,9 km/h (4 Bft)
01.08.2021 17:50 18,2 C 75 % 1011,5 hPa 0,0 l/m 7,5 km/h (2 Bft) W-NW 282 13,7 C 17,7 C 19,3 km/h (3 Bft)
01.08.2021 17:45 18,1 C 74 % 1011,4 hPa 0,0 l/m 10,5 km/h (2 Bft) W-NW 297 13,4 C 16,4 C 20,9 km/h (4 Bft)
01.08.2021 17:40 18,1 C 73 % 1011,3 hPa 0,0 l/m 9,4 km/h (2 Bft) W-NW 288 13,2 C 16,8 C 17,7 km/h (3 Bft)
01.08.2021 17:35 18,0 C 72 % 1011,3 hPa 0,0 l/m 9,7 km/h (2 Bft) W 267 12,9 C 16,5 C 17,7 km/h (3 Bft)
01.08.2021 17:30 17,9 C 71 % 1011,1 hPa 0,0 l/m 6,3 km/h (2 Bft) W 277 12,6 C 17,9 C 16,1 km/h (3 Bft)
01.08.2021 17:25 17,9 C 69 % 1011,2 hPa 0,0 l/m 6,2 km/h (2 Bft) W-NW 282 12,1 C 17,9 C 14,5 km/h (3 Bft)
01.08.2021 17:20 18,0 C 68 % 1011,2 hPa 0,0 l/m 8,6 km/h (2 Bft) W 271 12,0 C 17,0 C 17,7 km/h (3 Bft)
01.08.2021 17:15 18,2 C 67 % 1011,2 hPa 0,0 l/m 11,1 km/h (2 Bft) W-SW 257 12,0 C 16,3 C 25,7 km/h (4 Bft)
01.08.2021 17:10 18,5 C 67 % 1011,3 hPa 0,0 l/m 12,0 km/h (2 Bft) NW 310 12,3 C 16,3 C 25,7 km/h (4 Bft)
01.08.2021 17:05 19,0 C 65 % 1011,2 hPa 0,0 l/m 16,2 km/h (3 Bft) W-SW 251 12,3 C 15,7 C 29,0 km/h (5 Bft)
01.08.2021 17:00 19,8 C 65 % 1011,1 hPa 0,0 l/m 12,9 km/h (3 Bft) SW 225 13,0 C 17,5 C 27,4 km/h (5 Bft)
01.08.2021 16:55 20,2 C 65 % 1010,9 hPa 0,0 l/m 13,7 km/h (3 Bft) W-NW 292 13,4 C 17,8 C 25,7 km/h (4 Bft)
01.08.2021 16:50 20,3 C 65 % 1010,7 hPa 0,0 l/m 12,2 km/h (2 Bft) W 263 13,5 C 18,3 C 24,1 km/h (4 Bft)
01.08.2021 16:45 20,7 C 63 % 1010,6 hPa 0,0 l/m 9,6 km/h (2 Bft) W-NW 283 13,4 C 19,5 C 20,9 km/h (4 Bft)
01.08.2021 16:40 20,9 C 63 % 1010,6 hPa 0,0 l/m 6,3 km/h (2 Bft) W-SW 252 13,6 C 20,9 C 16,1 km/h (3 Bft)
01.08.2021 16:35 21,0 C 63 % 1010,6 hPa 0,0 l/m 7,7 km/h (2 Bft) W 276 13,7 C 20,5 C 14,5 km/h (3 Bft)
01.08.2021 16:30 21,0 C 62 % 1010,5 hPa 0,0 l/m 7,9 km/h (2 Bft) NW 325 13,4 C 20,4 C 17,7 km/h (3 Bft)
01.08.2021 16:25 21,1 C 61 % 1010,5 hPa 0,0 l/m 8,8 km/h (2 Bft) NW 321 13,3 C 20,2 C 16,1 km/h (3 Bft)
01.08.2021 16:20 21,3 C 61 % 1010,6 hPa 0,0 l/m 6,2 km/h (2 Bft) W-NW 286 13,5 C 21,3 C 14,5 km/h (3 Bft)
01.08.2021 16:15 21,5 C 62 % 1010,6 hPa 0,0 l/m 6,7 km/h (2 Bft) W 277 13,9 C 21,4 C 12,9 km/h (3 Bft)
01.08.2021 16:10 21,4 C 61 % 1010,5 hPa 0,0 l/m 8,2 km/h (2 Bft) W-NW 303 13,6 C 20,8 C 14,5 km/h (3 Bft)
01.08.2021 16:05 21,4 C 61 % 1010,6 hPa 0,0 l/m 10,0 km/h (2 Bft) W-NW 298 13,6 C 20,2 C 17,7 km/h (3 Bft)
01.08.2021 16:00 21,6 C 60 % 1010,6 hPa 0,0 l/m 10,1 km/h (2 Bft) W 261 13,5 C 20,4 C 24,1 km/h (4 Bft)
01.08.2021 15:55 21,9 C 60 % 1010,5 hPa 0,0 l/m 8,6 km/h (2 Bft) W-SW 256 13,8 C 21,2 C 16,1 km/h (3 Bft)
01.08.2021 15:50 21,6 C 62 % 1010,5 hPa 0,0 l/m 7,7 km/h (2 Bft) W 279 14,0 C 21,1 C 16,1 km/h (3 Bft)
01.08.2021 15:45 21,4 C 61 % 1010,5 hPa 0,0 l/m 9,2 km/h (2 Bft) NW 326 13,6 C 20,4 C 16,1 km/h (3 Bft)
01.08.2021 15:40 21,4 C 61 % 1010,6 hPa 0,0 l/m 7,9 km/h (2 Bft) W-SW 247 13,6 C 20,9 C 20,9 km/h (4 Bft)
01.08.2021 15:35 21,5 C 59 % 1010,6 hPa 0,0 l/m 9,3 km/h (2 Bft) W 280 13,1 C 20,5 C 17,7 km/h (3 Bft)
01.08.2021 15:30 21,6 C 62 % 1010,5 hPa 0,0 l/m 8,5 km/h (2 Bft) SW 236 14,0 C 20,9 C 17,7 km/h (3 Bft)
01.08.2021 15:25 21,6 C 62 % 1010,5 hPa 0,0 l/m 6,0 km/h (2 Bft) W 266 14,0 C 21,6 C 14,5 km/h (3 Bft)
01.08.2021 15:20 21,1 C 63 % 1010,6 hPa 0,0 l/m 7,7 km/h (2 Bft) W 281 13,8 C 20,6 C 16,1 km/h (3 Bft)
01.08.2021 15:15 21,0 C 64 % 1010,6 hPa 0,0 l/m 7,3 km/h (2 Bft) W 281 13,9 C 20,7 C 16,1 km/h (3 Bft)
01.08.2021 15:10 21,3 C 61 % 1010,6 hPa 0,0 l/m 7,8 km/h (2 Bft) N-NW 332 13,5 C 20,8 C 14,5 km/h (3 Bft)
01.08.2021 15:05 21,6 C 60 % 1010,6 hPa 0,0 l/m 8,4 km/h (2 Bft) W 279 13,5 C 20,9 C 16,1 km/h (3 Bft)
01.08.2021 15:00 21,7 C 60 % 1010,6 hPa 0,0 l/m 5,4 km/h (2 Bft) NW 321 13,6 C 21,7 C 14,5 km/h (3 Bft)
01.08.2021 14:55 21,7 C 61 % 1010,6 hPa 0,0 l/m 6,6 km/h (2 Bft) N 355 13,8 C 21,6 C 14,5 km/h (3 Bft)
01.08.2021 14:50 21,4 C 61 % 1010,6 hPa 0,0 l/m 7,2 km/h (2 Bft) W-NW 297 13,6 C 21,1 C 14,5 km/h (3 Bft)
01.08.2021 14:45 21,4 C 60 % 1010,7 hPa 0,0 l/m 7,0 km/h (2 Bft) NW 315 13,3 C 21,2 C 14,5 km/h (3 Bft)
01.08.2021 14:40 21,3 C 62 % 1010,8 hPa 0,0 l/m 7,6 km/h (2 Bft) W-NW 290 13,7 C 20,9 C 16,1 km/h (3 Bft)
01.08.2021 14:35 21,4 C 62 % 1010,8 hPa 0,0 l/m 9,1 km/h (2 Bft) W-SW 255 13,8 C 20,5 C 19,3 km/h (3 Bft)
01.08.2021 14:30 21,3 C 61 % 1010,8 hPa 0,0 l/m 10,1 km/h (2 Bft) W 273 13,5 C 20,0 C 19,3 km/h (3 Bft)
01.08.2021 14:25 21,3 C 61 % 1010,7 hPa 0,0 l/m 9,0 km/h (2 Bft) W-NW 289 13,5 C 20,4 C 17,7 km/h (3 Bft)
01.08.2021 14:20 21,0 C 61 % 1010,8 hPa 0,0 l/m 9,6 km/h (2 Bft) W-SW 246 13,2 C 19,9 C 16,1 km/h (3 Bft)
01.08.2021 14:15 20,9 C 62 % 1010,9 hPa 0,0 l/m 11,8 km/h (2 Bft) W 280 13,3 C 19,1 C 22,5 km/h (4 Bft)
01.08.2021 14:10 20,9 C 62 % 1010,8 hPa 0,0 l/m 9,2 km/h (2 Bft) W-SW 257 13,3 C 19,9 C 17,7 km/h (3 Bft)
01.08.2021 14:05 20,8 C 61 % 1011,0 hPa 0,0 l/m 10,4 km/h (2 Bft) NW 315 13,0 C 19,4 C 20,9 km/h (4 Bft)
01.08.2021 14:00 20,8 C 60 % 1011,0 hPa 0,0 l/m 8,6 km/h (2 Bft) W 269 12,7 C 20,0 C 19,3 km/h (3 Bft)
01.08.2021 13:55 20,9 C 59 % 1011,1 hPa 0,0 l/m 8,9 km/h (2 Bft) W 271 12,6 C 20,0 C 19,3 km/h (3 Bft)
01.08.2021 13:50 20,6 C 61 % 1011,0 hPa 0,0 l/m 8,8 km/h (2 Bft) W 281 12,8 C 19,7 C 19,3 km/h (3 Bft)
01.08.2021 13:45 20,4 C 61 % 1011,1 hPa 0,0 l/m 9,6 km/h (2 Bft) S-SW 213 12,6 C 19,2 C 19,3 km/h (3 Bft)
01.08.2021 13:40 20,7 C 60 % 1011,1 hPa 0,0 l/m 10,0 km/h (2 Bft) W 265 12,7 C 19,4 C 19,3 km/h (3 Bft)
01.08.2021 13:35 21,1 C 60 % 1011,1 hPa 0,0 l/m 11,4 km/h (2 Bft) N-NW 330 13,0 C 19,5 C 20,9 km/h (4 Bft)
01.08.2021 13:30 21,1 C 60 % 1011,0 hPa 0,0 l/m 8,5 km/h (2 Bft) W-SW 242 13,0 C 20,3 C 19,3 km/h (3 Bft)
01.08.2021 13:25 20,7 C 61 % 1011,0 hPa 0,0 l/m 10,0 km/h (2 Bft) N-NW 330 12,9 C 19,4 C 22,5 km/h (4 Bft)
01.08.2021 13:20 20,9 C 61 % 1010,9 hPa 0,0 l/m 9,4 km/h (2 Bft) W-SW 246 13,1 C 19,8 C 19,3 km/h (3 Bft)
01.08.2021 13:15 20,6 C 62 % 1010,9 hPa 0,0 l/m 10,7 km/h (2 Bft) W-NW 297 13,1 C 19,1 C 22,5 km/h (4 Bft)
01.08.2021 13:10 20,3 C 62 % 1011,0 hPa 0,0 l/m 11,5 km/h (2 Bft) W 281 12,8 C 18,5 C 25,7 km/h (4 Bft)
01.08.2021 13:05 19,8 C 63 % 1011,1 hPa 0,0 l/m 8,5 km/h (2 Bft) W-SW 246 12,5 C 18,9 C 19,3 km/h (3 Bft)
01.08.2021 13:00 19,8 C 61 % 1011,1 hPa 0,0 l/m 9,6 km/h (2 Bft) W 259 12,1 C 18,6 C 19,3 km/h (3 Bft)
01.08.2021 12:55 20,0 C 62 % 1011,0 hPa 0,0 l/m 5,8 km/h (2 Bft) W 267 12,5 C 20,0 C 14,5 km/h (3 Bft)
01.08.2021 12:50 20,2 C 62 % 1011,0 hPa 0,0 l/m 10,0 km/h (2 Bft) NW 310 12,7 C 18,9 C 20,9 km/h (4 Bft)
01.08.2021 12:45 20,1 C 66 % 1011,1 hPa 0,0 l/m 9,4 km/h (2 Bft) W-NW 284 13,5 C 19,0 C 19,3 km/h (3 Bft)
01.08.2021 12:40 19,6 C 66 % 1010,9 hPa 0,0 l/m 10,8 km/h (2 Bft) W-NW 298 13,1 C 17,9 C 20,9 km/h (4 Bft)
01.08.2021 12:35 18,9 C 66 % 1011,0 hPa 0,0 l/m 9,0 km/h (2 Bft) W 259 12,4 C 17,8 C 17,7 km/h (3 Bft)
01.08.2021 12:30 18,8 C 66 % 1011,1 hPa 0,0 l/m 8,5 km/h (2 Bft) W-NW 291 12,3 C 17,9 C 16,1 km/h (3 Bft)
01.08.2021 12:25 18,8 C 68 % 1011,2 hPa 0,0 l/m 5,7 km/h (2 Bft) NW 310 12,8 C 18,8 C 12,9 km/h (3 Bft)
01.08.2021 12:20 18,8 C 68 % 1011,2 hPa 0,0 l/m 6,2 km/h (2 Bft) NW 321 12,8 C 18,8 C 14,5 km/h (3 Bft)
01.08.2021 12:15 18,9 C 67 % 1011,1 hPa 0,0 l/m 5,6 km/h (2 Bft) N 350 12,6 C 18,9 C 14,5 km/h (3 Bft)
01.08.2021 12:10 19,1 C 66 % 1011,1 hPa 0,0 l/m 6,1 km/h (2 Bft) NW 315 12,6 C 19,1 C 12,9 km/h (3 Bft)
01.08.2021 12:05 19,5 C 65 % 1011,2 hPa 0,0 l/m 7,1 km/h (2 Bft) N 5 12,7 C 19,2 C 16,1 km/h (3 Bft)
01.08.2021 12:00 19,4 C 65 % 1011,0 hPa 0,0 l/m 5,8 km/h (2 Bft) W-SW 257 12,6 C 19,4 C 14,5 km/h (3 Bft)
01.08.2021 11:55 19,4 C 65 % 1011,1 hPa 0,0 l/m 7,2 km/h (2 Bft) NW 319 12,6 C 19,1 C 17,7 km/h (3 Bft)
01.08.2021 11:50 19,3 C 65 % 1011,0 hPa 0,0 l/m 5,5 km/h (2 Bft) W-SW 237 12,6 C 19,3 C 9,7 km/h (2 Bft)
01.08.2021 11:45 19,3 C 64 % 1011,0 hPa 0,0 l/m 5,3 km/h (1 Bft) W-SW 252 12,3 C 19,3 C 12,9 km/h (3 Bft)
01.08.2021 11:40 19,5 C 63 % 1011,0 hPa 0,0 l/m 5,7 km/h (2 Bft) SW 219 12,3 C 19,5 C 11,3 km/h (2 Bft)
01.08.2021 11:35 19,7 C 62 % 1011,0 hPa 0,0 l/m 6,7 km/h (2 Bft) W 266 12,2 C 19,6 C 14,5 km/h (3 Bft)
01.08.2021 11:30 19,9 C 62 % 1010,9 hPa 0,0 l/m 6,5 km/h (2 Bft) W-NW 283 12,4 C 19,9 C 14,5 km/h (3 Bft)
01.08.2021 11:25 20,1 C 62 % 1010,9 hPa 0,0 l/m 7,2 km/h (2 Bft) NW 305 12,6 C 19,8 C 16,1 km/h (3 Bft)
01.08.2021 11:20 20,3 C 62 % 1010,9 hPa 0,0 l/m 8,4 km/h (2 Bft) W 275 12,8 C 19,5 C 16,1 km/h (3 Bft)
01.08.2021 11:15 20,0 C 63 % 1010,7 hPa 0,0 l/m 3,4 km/h (1 Bft) N-NW 329 12,7 C 20,0 C 8,0 km/h (2 Bft)
01.08.2021 11:10 19,9 C 63 % 1010,7 hPa 0,0 l/m 5,9 km/h (2 Bft) W 268 12,6 C 19,9 C 11,3 km/h (2 Bft)
01.08.2021 11:05 20,0 C 63 % 1010,7 hPa 0,0 l/m 3,5 km/h (1 Bft) W 264 12,7 C 20,0 C 9,7 km/h (2 Bft)
01.08.2021 11:00 19,8 C 64 % 1010,7 hPa 0,0 l/m 6,2 km/h (2 Bft) N-NW 344 12,8 C 19,8 C 14,5 km/h (3 Bft)
01.08.2021 10:55 19,8 C 62 % 1010,6 hPa 0,0 l/m 6,6 km/h (2 Bft) W-SW 242 12,3 C 19,7 C 19,3 km/h (3 Bft)
01.08.2021 10:50 19,5 C 64 % 1010,7 hPa 0,0 l/m 3,6 km/h (1 Bft) W-SW 248 12,5 C 19,5 C 12,9 km/h (3 Bft)
01.08.2021 10:45 19,7 C 63 % 1010,7 hPa 0,0 l/m 6,0 km/h (2 Bft) SW 223 12,5 C 19,7 C 14,5 km/h (3 Bft)
01.08.2021 10:40 19,6 C 65 % 1010,7 hPa 0,0 l/m 4,2 km/h (1 Bft) W 281 12,8 C 19,6 C 11,3 km/h (2 Bft)
01.08.2021 10:35 19,4 C 66 % 1010,6 hPa 0,0 l/m 5,3 km/h (1 Bft) W-NW 293 12,9 C 19,4 C 16,1 km/h (3 Bft)
01.08.2021 10:30 19,1 C 68 % 1010,6 hPa 0,0 l/m 2,8 km/h (1 Bft) W 268 13,1 C 19,1 C 8,0 km/h (2 Bft)
01.08.2021 10:25 18,8 C 68 % 1010,5 hPa 0,0 l/m 6,2 km/h (2 Bft) S-SW 204 12,8 C 18,8 C 14,5 km/h (3 Bft)
01.08.2021 10:20 18,7 C 67 % 1010,6 hPa 0,0 l/m 4,3 km/h (1 Bft) SW 230 12,4 C 18,7 C 9,7 km/h (2 Bft)
01.08.2021 10:15 18,5 C 69 % 1010,6 hPa 0,0 l/m 4,3 km/h (1 Bft) W 281 12,7 C 18,5 C 9,7 km/h (2 Bft)
01.08.2021 10:10 18,3 C 68 % 1010,6 hPa 0,0 l/m 4,8 km/h (1 Bft) SW 217 12,3 C 18,3 C 11,3 km/h (2 Bft)
01.08.2021 10:05 18,3 C 69 % 1010,7 hPa 0,0 l/m 4,9 km/h (1 Bft) SW 227 12,5 C 18,3 C 11,3 km/h (2 Bft)
01.08.2021 10:00 18,2 C 71 % 1010,6 hPa 0,0 l/m 3,9 km/h (1 Bft) W-NW 290 12,9 C 18,2 C 8,0 km/h (2 Bft)
01.08.2021 09:55 17,9 C 73 % 1010,6 hPa 0,0 l/m 3,9 km/h (1 Bft) W 268 13,0 C 17,9 C 9,7 km/h (2 Bft)
01.08.2021 09:50 17,7 C 73 % 1010,6 hPa 0,0 l/m 4,7 km/h (1 Bft) W 261 12,8 C 17,7 C 11,3 km/h (2 Bft)
01.08.2021 09:45 17,7 C 72 % 1010,7 hPa 0,0 l/m 4,4 km/h (1 Bft) S-SW 207 12,6 C 17,7 C 12,9 km/h (3 Bft)
01.08.2021 09:40 17,6 C 73 % 1010,7 hPa 0,0 l/m 5,5 km/h (2 Bft) NW 323 12,7 C 17,6 C 11,3 km/h (2 Bft)
01.08.2021 09:35 17,5 C 73 % 1010,7 hPa 0,0 l/m 5,5 km/h (2 Bft) W-SW 250 12,6 C 17,5 C 11,3 km/h (2 Bft)
01.08.2021 09:30 17,4 C 74 % 1010,6 hPa 0,0 l/m 4,2 km/h (1 Bft) W 267 12,7 C 17,4 C 8,0 km/h (2 Bft)
01.08.2021 09:25 17,2 C 76 % 1010,7 hPa 0,0 l/m 3,2 km/h (1 Bft) W-SW 254 12,9 C 17,2 C 11,3 km/h (2 Bft)
01.08.2021 09:20 17,1 C 75 % 1010,6 hPa 0,0 l/m 5,2 km/h (1 Bft) W-NW 293 12,6 C 17,1 C 11,3 km/h (2 Bft)
01.08.2021 09:15 17,0 C 77 % 1010,7 hPa 0,0 l/m 3,5 km/h (1 Bft) W-NW 286 12,9 C 17,0 C 9,7 km/h (2 Bft)
01.08.2021 09:10 16,8 C 78 % 1010,7 hPa 0,0 l/m 3,9 km/h (1 Bft) W 273 12,9 C 16,8 C 11,3 km/h (2 Bft)
01.08.2021 09:05 16,6 C 79 % 1010,7 hPa 0,0 l/m 1,4 km/h (1 Bft) W-SW 254 12,9 C 16,6 C 6,4 km/h (2 Bft)
01.08.2021 09:00 16,2 C 81 % 1010,8 hPa 0,0 l/m 0,4 km/h (0 Bft) SW 227 12,9 C 16,2 C 3,2 km/h (1 Bft)
01.08.2021 08:55 16,1 C 81 % 1010,7 hPa 0,0 l/m 3,0 km/h (1 Bft) SW 227 12,8 C 16,1 C 6,4 km/h (2 Bft)
01.08.2021 08:50 16,1 C 82 % 1010,7 hPa 0,0 l/m 2,0 km/h (1 Bft) W 264 13,0 C 16,1 C 4,8 km/h (1 Bft)
01.08.2021 08:45 15,8 C 83 % 1010,8 hPa 0,0 l/m 1,1 km/h (1 Bft) W-SW 244 12,9 C 15,8 C 6,4 km/h (2 Bft)
01.08.2021 08:40 15,4 C 84 % 1010,8 hPa 0,0 l/m 1,9 km/h (1 Bft) SW 226 12,7 C 15,4 C 4,8 km/h (1 Bft)
01.08.2021 08:35 15,2 C 86 % 1010,8 hPa 0,0 l/m 1,3 km/h (1 Bft) SW 235 12,9 C 15,2 C 6,4 km/h (2 Bft)
01.08.2021 08:30 14,8 C 87 % 1010,8 hPa 0,0 l/m 0,0 km/h (0 Bft) W-SW 251 12,7 C 14,8 C 0,0 km/h (0 Bft)
01.08.2021 08:25 14,5 C 88 % 1010,7 hPa 0,0 l/m 0,0 km/h (0 Bft) W 261 12,5 C 14,5 C 0,0 km/h (0 Bft)
01.08.2021 08:20 14,2 C 90 % 1010,8 hPa 0,0 l/m 0,0 km/h (0 Bft) W 261 12,6 C 14,2 C 0,0 km/h (0 Bft)
01.08.2021 08:15 13,9 C 90 % 1010,7 hPa 0,0 l/m 0,0 km/h (0 Bft) W 271 12,3 C 13,9 C 0,0 km/h (0 Bft)
01.08.2021 08:10 13,7 C 91 % 1010,7 hPa 0,0 l/m 0,0 km/h (0 Bft) W 273 12,3 C 13,7 C 0,0 km/h (0 Bft)
01.08.2021 08:05 13,6 C 91 % 1010,7 hPa 0,0 l/m 0,0 km/h (0 Bft) W 273 12,2 C 13,6 C 0,0 km/h (0 Bft)
01.08.2021 08:00 13,6 C 91 % 1010,6 hPa 0,0 l/m 0,0 km/h (0 Bft) W 273 12,2 C 13,6 C 0,0 km/h (0 Bft)
01.08.2021 07:55 13,4 C 91 % 1010,6 hPa 0,0 l/m 0,0 km/h (0 Bft) W 273 12,0 C 13,4 C 0,0 km/h (0 Bft)
01.08.2021 07:50 13,4 C 91 % 1010,7 hPa 0,0 l/m 0,6 km/h (0 Bft) W 273 12,0 C 13,4 C 3,2 km/h (1 Bft)
01.08.2021 07:45 13,3 C 91 % 1010,7 hPa 0,0 l/m 0,0 km/h (0 Bft) W 273 11,9 C 13,3 C 0,0 km/h (0 Bft)
01.08.2021 07:40 13,3 C 91 % 1010,7 hPa 0,0 l/m 0,0 km/h (0 Bft) W 273 11,9 C 13,3 C 0,0 km/h (0 Bft)
01.08.2021 07:35 13,3 C 91 % 1010,7 hPa 0,0 l/m 0,0 km/h (0 Bft) W 273 11,9 C 13,3 C 0,0 km/h (0 Bft)
01.08.2021 07:30 13,3 C 91 % 1010,8 hPa 0,0 l/m 0,0 km/h (0 Bft) W 273 11,9 C 13,3 C 0,0 km/h (0 Bft)
01.08.2021 07:25 13,2 C 91 % 1010,8 hPa 0,0 l/m 0,0 km/h (0 Bft) W 273 11,8 C 13,2 C 0,0 km/h (0 Bft)
01.08.2021 07:20 13,2 C 91 % 1010,7 hPa 0,0 l/m 0,0 km/h (0 Bft) W 273 11,8 C 13,2 C 0,0 km/h (0 Bft)
01.08.2021 07:15 13,2 C 91 % 1010,6 hPa 0,0 l/m 0,0 km/h (0 Bft) W 273 11,8 C 13,2 C 0,0 km/h (0 Bft)
01.08.2021 07:10 13,2 C 91 % 1010,7 hPa 0,0 l/m 0,0 km/h (0 Bft) W 273 11,8 C 13,2 C 0,0 km/h (0 Bft)
01.08.2021 07:05 13,1 C 91 % 1010,7 hPa 0,0 l/m 0,0 km/h (0 Bft) W 273 11,7 C 13,1 C 0,0 km/h (0 Bft)
01.08.2021 07:00 13,1 C 91 % 1010,8 hPa 0,0 l/m 0,0 km/h (0 Bft) W 273 11,7 C 13,1 C 0,0 km/h (0 Bft)
01.08.2021 06:55 13,2 C 90 % 1010,6 hPa 0,0 l/m 0,0 km/h (0 Bft) W 273 11,6 C 13,2 C 0,0 km/h (0 Bft)
01.08.2021 06:50 13,2 C 90 % 1010,8 hPa 0,0 l/m 0,0 km/h (0 Bft) W 273 11,6 C 13,2 C 0,0 km/h (0 Bft)
01.08.2021 06:45 13,2 C 90 % 1010,7 hPa 0,0 l/m 0,0 km/h (0 Bft) W 273 11,6 C 13,2 C 0,0 km/h (0 Bft)
01.08.2021 06:40 13,2 C 90 % 1010,6 hPa 0,0 l/m 0,0 km/h (0 Bft) W 273 11,6 C 13,2 C 0,0 km/h (0 Bft)
01.08.2021 06:35 13,3 C 90 % 1010,8 hPa 0,0 l/m 0,0 km/h (0 Bft) W 273 11,7 C 13,3 C 0,0 km/h (0 Bft)
01.08.2021 06:30 13,3 C 90 % 1010,8 hPa 0,0 l/m 0,0 km/h (0 Bft) W 273 11,7 C 13,3 C 0,0 km/h (0 Bft)
01.08.2021 06:25 13,4 C 89 % 1010,7 hPa 0,0 l/m 0,0 km/h (0 Bft) W 273 11,6 C 13,4 C 0,0 km/h (0 Bft)
01.08.2021 06:20 13,4 C 89 % 1010,7 hPa 0,0 l/m 0,0 km/h (0 Bft) W 273 11,6 C 13,4 C 0,0 km/h (0 Bft)
01.08.2021 06:15 13,6 C 89 % 1010,8 hPa 0,0 l/m 0,0 km/h (0 Bft) W 273 11,8 C 13,6 C 0,0 km/h (0 Bft)
01.08.2021 06:10 13,7 C 89 % 1010,6 hPa 0,0 l/m 0,0 km/h (0 Bft) W 273 11,9 C 13,7 C 0,0 km/h (0 Bft)
01.08.2021 06:05 13,7 C 89 % 1010,7 hPa 0,0 l/m 0,0 km/h (0 Bft) W 273 11,9 C 13,7 C 0,0 km/h (0 Bft)
01.08.2021 06:00 13,8 C 88 % 1010,8 hPa 0,0 l/m 0,0 km/h (0 Bft) W 273 11,8 C 13,8 C 0,0 km/h (0 Bft)
01.08.2021 05:55 14,0 C 88 % 1010,8 hPa 0,0 l/m 0,0 km/h (0 Bft) W 273 12,0 C 14,0 C 1,6 km/h (1 Bft)
01.08.2021 05:50 14,1 C 88 % 1010,8 hPa 0,0 l/m 0,0 km/h (0 Bft) W 273 12,1 C 14,1 C 0,0 km/h (0 Bft)
01.08.2021 05:45 14,2 C 88 % 1010,5 hPa 0,0 l/m 0,3 km/h (0 Bft) W 273 12,2 C 14,2 C 3,2 km/h (1 Bft)
01.08.2021 05:40 14,2 C 88 % 1010,5 hPa 0,0 l/m 2,1 km/h (1 Bft) W 273 12,2 C 14,2 C 6,4 km/h (2 Bft)
01.08.2021 05:35 14,3 C 88 % 1010,5 hPa 0,0 l/m 3,2 km/h (1 Bft) W 271 12,3 C 14,3 C 9,7 km/h (2 Bft)
01.08.2021 05:30 14,2 C 88 % 1010,6 hPa 0,0 l/m 3,0 km/h (1 Bft) W-SW 248 12,2 C 14,2 C 6,4 km/h (2 Bft)
01.08.2021 05:25 14,3 C 88 % 1010,5 hPa 0,0 l/m 2,8 km/h (1 Bft) W-SW 258 12,3 C 14,3 C 6,4 km/h (2 Bft)
01.08.2021 05:20 14,3 C 88 % 1010,4 hPa 0,0 l/m 3,6 km/h (1 Bft) W-SW 250 12,3 C 14,3 C 8,0 km/h (2 Bft)
01.08.2021 05:15 14,3 C 88 % 1010,4 hPa 0,0 l/m 2,7 km/h (1 Bft) W-NW 291 12,3 C 14,3 C 9,7 km/h (2 Bft)
01.08.2021 05:10 14,3 C 88 % 1010,4 hPa 0,0 l/m 3,1 km/h (1 Bft) W 275 12,3 C 14,3 C 6,4 km/h (2 Bft)
01.08.2021 05:05 14,3 C 88 % 1010,5 hPa 0,0 l/m 3,9 km/h (1 Bft) W 279 12,3 C 14,3 C 9,7 km/h (2 Bft)
01.08.2021 05:00 14,3 C 89 % 1010,5 hPa 0,0 l/m 2,4 km/h (1 Bft) W 269 12,5 C 14,3 C 6,4 km/h (2 Bft)
01.08.2021 04:55 14,3 C 89 % 1010,5 hPa 0,0 l/m 2,3 km/h (1 Bft) W 270 12,5 C 14,3 C 6,4 km/h (2 Bft)
01.08.2021 04:50 14,2 C 89 % 1010,5 hPa 0,0 l/m 2,3 km/h (1 Bft) W 261 12,4 C 14,2 C 6,4 km/h (2 Bft)
01.08.2021 04:45 14,2 C 89 % 1010,5 hPa 0,0 l/m 2,0 km/h (1 Bft) W 259 12,4 C 14,2 C 4,8 km/h (1 Bft)
01.08.2021 04:40 14,1 C 89 % 1010,5 hPa 0,0 l/m 3,4 km/h (1 Bft) W 259 12,3 C 14,1 C 6,4 km/h (2 Bft)
01.08.2021 04:35 13,9 C 90 % 1010,5 hPa 0,0 l/m 1,9 km/h (1 Bft) W 263 12,3 C 13,9 C 6,4 km/h (2 Bft)
01.08.2021 04:30 13,8 C 90 % 1010,6 hPa 0,0 l/m 0,9 km/h (0 Bft) W 263 12,2 C 13,8 C 6,4 km/h (2 Bft)
01.08.2021 04:25 13,8 C 89 % 1010,6 hPa 0,0 l/m 0,0 km/h (0 Bft) SW 234 12,0 C 13,8 C 0,0 km/h (0 Bft)
01.08.2021 04:20 13,8 C 89 % 1010,7 hPa 0,0 l/m 0,0 km/h (0 Bft) SW 234 12,0 C 13,8 C 0,0 km/h (0 Bft)
01.08.2021 04:15 13,8 C 89 % 1010,6 hPa 0,0 l/m 0,0 km/h (0 Bft) SW 234 12,0 C 13,8 C 0,0 km/h (0 Bft)
01.08.2021 04:10 13,8 C 89 % 1010,7 hPa 0,0 l/m 0,0 km/h (0 Bft) SW 234 12,0 C 13,8 C 0,0 km/h (0 Bft)
01.08.2021 04:05 13,9 C 88 % 1010,8 hPa 0,0 l/m 0,0 km/h (0 Bft) SW 234 11,9 C 13,9 C 0,0 km/h (0 Bft)
01.08.2021 04:00 13,9 C 88 % 1010,7 hPa 0,0 l/m 0,0 km/h (0 Bft) SW 234 11,9 C 13,9 C 0,0 km/h (0 Bft)
01.08.2021 03:55 14,0 C 88 % 1010,7 hPa 0,0 l/m 0,0 km/h (0 Bft) SW 234 12,0 C 14,0 C 0,0 km/h (0 Bft)
01.08.2021 03:50 14,0 C 88 % 1010,7 hPa 0,0 l/m 0,4 km/h (0 Bft) SW 234 12,0 C 14,0 C 3,2 km/h (1 Bft)
01.08.2021 03:45 14,0 C 88 % 1010,6 hPa 0,0 l/m 0,8 km/h (0 Bft) SW 234 12,0 C 14,0 C 3,2 km/h (1 Bft)
01.08.2021 03:40 14,0 C 89 % 1010,6 hPa 0,0 l/m 2,1 km/h (1 Bft) SW 232 12,2 C 14,0 C 6,4 km/h (2 Bft)
01.08.2021 03:35 13,9 C 89 % 1010,6 hPa 0,0 l/m 2,1 km/h (1 Bft) SW 235 12,1 C 13,9 C 6,4 km/h (2 Bft)
01.08.2021 03:30 13,7 C 89 % 1010,6 hPa 0,0 l/m 1,7 km/h (1 Bft) W-SW 239 11,9 C 13,7 C 4,8 km/h (1 Bft)
01.08.2021 03:25 13,7 C 89 % 1010,7 hPa 0,0 l/m 0,5 km/h (0 Bft) W-SW 248 11,9 C 13,7 C 3,2 km/h (1 Bft)
01.08.2021 03:20 13,7 C 89 % 1010,7 hPa 0,0 l/m 0,0 km/h (0 Bft) W-SW 250 11,9 C 13,7 C 0,0 km/h (0 Bft)
01.08.2021 03:15 13,8 C 88 % 1010,7 hPa 0,0 l/m 0,0 km/h (0 Bft) W-SW 250 11,8 C 13,8 C 0,0 km/h (0 Bft)
01.08.2021 03:10 14,0 C 88 % 1010,7 hPa 0,0 l/m 0,0 km/h (0 Bft) W-SW 250 12,0 C 14,0 C 0,0 km/h (0 Bft)
01.08.2021 03:05 14,1 C 88 % 1010,8 hPa 0,0 l/m 0,0 km/h (0 Bft) W-SW 250 12,1 C 14,1 C 0,0 km/h (0 Bft)
01.08.2021 03:00 14,2 C 88 % 1010,7 hPa 0,0 l/m 0,0 km/h (0 Bft) W-SW 250 12,2 C 14,2 C 0,0 km/h (0 Bft)
_ Min-Zeit 07:00 13:55 05:10 - 03:00 - - 06:40 07:00 03:00
Minimum _ 13,1 C 59 % 1010,4 hPa - 0,0 km/h (0 Bft) - - 11,6 C 13,1 C 0,0 km/h (0 Bft)
_ Max-Zeit 15:55 07:00 00:55 03:00 17:05 - - 15:25 15:00 17:05
Maximum _ 21,9 C 91 % 1013,8 hPa 0,0 l/m 16,2 km/h
W-SW (3 Bft)
- - 14,0 C 21,7 C 29,0 km/h
NW (5 Bft)
Durchschnitt _ 16,8 C 77 % 1011,5 hPa #0,0 l/m 4,1 km/h (1 Bft) W - 12,7 C 16,6 C 9,2 km/h (2 Bft)
www.klaudt.eu